Lima, Iowa
Current Conditions -  °F | °C
As of 6:35 AM on Thursday 23 Oct 2014 (Local Time) from KOLZ Reporting Station
Broken Clouds Broken Clouds  
Wind Chill: 43°   Ceiling: 7500
Heat Index: 48°   Visibility: 10mi
Dew Point: 45°   Wind: 13mph
Humidity: 87%   Direction: 150°SSE
Pressure: 30.07"   Gusts: NA
Location:  42.8663°N, 91.8396°W
Report Text: KOLZ 231135Z AUTO 15011KT 10SM FEW036 SCT065 BKN075 09/07 A3007 RMK AO2
Loading
Personal Weather Stations






























Interactive Weather Map
Tropical Storm Tracking
New forecast layout! Learn more

10-Day Weather Forecast

Advertisements
Track Severe Weather on mobile